createdAt,value
2022-08-05T00:02:14.604Z,95575.47
2022-08-05T00:05:05.843Z,95587.84
2022-08-05T00:08:00.748Z,95595.47
2022-08-05T00:10:48.379Z,95589.25
2022-08-05T00:13:39.503Z,95598.47
2022-08-05T00:16:36.304Z,95583.28
2022-08-05T00:19:45.679Z,95573.88
2022-08-05T00:22:40.982Z,95577.84
2022-08-05T00:25:45.599Z,95576.94
2022-08-05T00:28:33.723Z,95567.91
2022-08-05T00:31:53.737Z,95567.75
2022-08-05T00:34:54.216Z,95574.94
2022-08-05T00:37:51.302Z,95576.41
2022-08-05T00:40:53.347Z,95569.81
2022-08-05T00:43:47.302Z,95576.81
2022-08-05T00:46:42.693Z,95573.28
2022-08-05T00:49:32.397Z,95563.56
2022-08-05T00:52:28.098Z,95583.41
2022-08-05T00:55:15.859Z,95599.06
2022-08-05T00:58:02.919Z,95595.47
2022-08-05T01:00:51.816Z,95603.41
2022-08-05T01:03:40.186Z,95598.28
2022-08-05T01:06:32.578Z,95585.66
2022-08-05T01:09:20.349Z,95581.47
2022-08-05T01:12:18.580Z,95585.00
2022-08-05T01:15:35.616Z,95578.00
2022-08-05T01:18:25.130Z,95574.66
2022-08-05T01:21:50.682Z,95580.50
2022-08-05T01:24:56.397Z,95583.59
2022-08-05T01:28:00.087Z,95585.13
2022-08-05T01:31:07.560Z,95583.03
2022-08-05T01:34:02.943Z,95575.75
2022-08-05T01:36:55.820Z,95584.06
2022-08-05T01:39:49.850Z,95580.25
2022-08-05T01:42:38.614Z,95588.19
2022-08-05T01:45:34.858Z,95586.69
2022-08-05T01:48:34.958Z,95590.31
2022-08-05T01:51:23.085Z,95584.31
2022-08-05T01:54:12.790Z,95603.41
2022-08-05T01:58:29.707Z,95603.25
2022-08-05T02:00:14.323Z,95608.84
2022-08-05T02:03:24.447Z,95594.13
2022-08-05T02:06:37.996Z,95596.28
2022-08-05T02:09:23.641Z,95603.88
2022-08-05T02:12:27.701Z,95599.56
2022-08-05T02:15:33.363Z,95593.44
2022-08-05T02:18:30.887Z,95587.47
2022-08-05T02:21:25.450Z,95584.59
2022-08-05T02:24:19.805Z,95588.97
2022-08-05T02:27:12.600Z,95583.34
2022-08-05T02:30:01.254Z,95585.66
2022-08-05T02:32:52.909Z,95586.34
2022-08-05T02:35:50.892Z,95602.41
2022-08-05T02:38:53.201Z,95609.47
2022-08-05T02:41:57.615Z,95605.09
2022-08-05T02:44:48.574Z,95605.09
2022-08-05T02:48:11.652Z,95618.16
2022-08-05T02:50:48.481Z,95625.78
2022-08-05T02:53:40.478Z,95620.78
2022-08-05T02:56:28.191Z,95624.63
2022-08-05T02:59:19.094Z,95622.59
2022-08-05T03:02:07.776Z,95619.22
2022-08-05T03:04:58.084Z,95609.59
2022-08-05T03:08:01.736Z,95612.59
2022-08-05T03:11:47.601Z,95612.94
2022-08-05T03:14:02.762Z,95624.44
2022-08-05T03:16:53.429Z,95615.84
2022-08-05T03:19:42.025Z,95622.28
2022-08-05T03:22:33.077Z,95627.75
2022-08-05T03:26:03.869Z,95627.03
2022-08-05T03:28:30.862Z,95628.34
2022-08-05T03:31:56.275Z,95620.19
2022-08-05T03:34:27.712Z,95614.56
2022-08-05T03:37:16.020Z,95614.72
2022-08-05T03:40:08.684Z,95613.41
2022-08-05T03:42:59.413Z,95607.09
2022-08-05T03:45:55.126Z,95611.66
2022-08-05T03:48:46.763Z,95607.69
2022-08-05T03:52:49.071Z,95606.97
2022-08-05T03:55:49.906Z,95609.66
2022-08-05T03:58:10.820Z,95607.94
2022-08-05T04:01:02.194Z,95601.88
2022-08-05T04:04:10.700Z,95608.16
2022-08-05T04:06:58.837Z,95607.88
2022-08-05T04:09:53.745Z,95608.28
2022-08-05T04:15:32.884Z,95607.44
2022-08-05T04:18:25.573Z,95614.41
2022-08-05T04:21:12.719Z,95610.16
2022-08-05T04:24:22.661Z,95621.81
2022-08-05T04:27:09.912Z,95635.50
2022-08-05T04:29:58.530Z,95652.25
2022-08-05T04:32:50.967Z,95647.72
2022-08-05T04:36:15.865Z,95645.31
2022-08-05T04:38:45.476Z,95647.97
2022-08-05T04:41:38.892Z,95643.13
2022-08-05T04:44:29.216Z,95659.38
2022-08-05T04:47:20.083Z,95650.69
2022-08-05T04:50:11.486Z,95660.41
2022-08-05T04:52:58.883Z,95671.78
2022-08-05T04:56:15.289Z,95674.13
2022-08-05T04:58:55.658Z,95687.69
2022-08-05T05:02:07.947Z,95676.19
2022-08-05T05:04:51.509Z,95692.34
2022-08-05T05:07:38.766Z,95684.56
2022-08-05T05:10:55.816Z,95686.13
2022-08-05T05:13:43.603Z,95696.78
2022-08-05T05:16:30.905Z,95708.25
2022-08-05T05:19:23.633Z,95696.16
2022-08-05T05:22:24.495Z,95694.56
2022-08-05T05:25:16.842Z,95692.63
2022-08-05T05:28:04.645Z,95715.22
2022-08-05T05:30:52.404Z,95707.13
2022-08-05T05:33:58.617Z,95711.13
2022-08-05T05:36:47.212Z,95706.94
2022-08-05T05:39:38.236Z,95710.53
2022-08-05T05:42:29.379Z,95707.59
2022-08-05T05:45:17.291Z,95718.53
2022-08-05T05:48:08.095Z,95731.25
2022-08-05T05:50:55.627Z,95725.59
2022-08-05T05:53:54.150Z,95720.19
2022-08-05T05:56:45.584Z,95718.81
2022-08-05T05:59:40.417Z,95717.28
2022-08-05T06:02:32.875Z,95707.69
2022-08-05T06:05:25.103Z,95696.56
2022-08-05T06:08:13.957Z,95692.69
2022-08-05T06:11:18.654Z,95694.06
2022-08-05T06:14:07.119Z,95705.94
2022-08-05T06:16:54.105Z,95715.41
2022-08-05T06:19:44.361Z,95730.34
2022-08-05T06:22:43.450Z,95742.09
2022-08-05T06:26:13.436Z,95748.97
2022-08-05T06:28:37.428Z,95746.94
2022-08-05T06:31:30.605Z,95747.81
2022-08-05T06:34:20.384Z,95750.47
2022-08-05T06:37:08.341Z,95770.25
2022-08-05T06:39:55.454Z,95779.59
2022-08-05T06:42:42.631Z,95792.00
2022-08-05T06:45:44.480Z,95790.88
2022-08-05T06:48:56.065Z,95807.84
2022-08-05T06:51:43.661Z,95820.47
2022-08-05T06:54:30.815Z,95823.19
2022-08-05T06:58:02.699Z,95828.47
2022-08-05T07:00:25.629Z,95827.53
2022-08-05T07:03:12.747Z,95814.56
2022-08-05T07:06:06.021Z,95804.16
2022-08-05T07:09:04.100Z,95813.97
2022-08-05T07:11:51.892Z,95809.97
2022-08-05T07:14:57.331Z,95835.66
2022-08-05T07:17:59.178Z,95851.88
2022-08-05T07:20:51.393Z,95869.06
2022-08-05T07:23:40.594Z,95880.09
2022-08-05T07:26:37.117Z,95888.00
2022-08-05T07:29:25.310Z,95880.72
2022-08-05T07:32:36.447Z,95869.13
2022-08-05T07:36:04.000Z,95864.59
2022-08-05T07:38:33.910Z,95863.75
2022-08-05T07:42:13.453Z,95865.31
2022-08-05T07:44:31.184Z,95847.06
2022-08-05T07:47:18.482Z,95842.34
2022-08-05T07:50:08.471Z,95838.06
2022-08-05T07:52:56.149Z,95856.53
2022-08-05T07:56:04.917Z,95854.28
2022-08-05T07:58:57.488Z,95853.22
2022-08-05T08:01:51.837Z,95864.06
2022-08-05T08:04:49.512Z,95863.63
2022-08-05T08:07:39.424Z,95851.06
2022-08-05T08:10:44.540Z,95856.16
2022-08-05T08:13:42.993Z,95864.94
2022-08-05T08:16:50.397Z,95872.34
2022-08-05T08:20:10.201Z,95875.53
2022-08-05T08:22:59.128Z,95886.50
2022-08-05T08:26:00.085Z,95860.06
2022-08-05T08:28:59.050Z,95867.22
2022-08-05T08:31:50.028Z,95870.13
2022-08-05T08:34:37.306Z,95884.16
2022-08-05T08:37:27.911Z,95885.09
2022-08-05T08:40:15.238Z,95878.09
2022-08-05T08:45:01.602Z,95874.75
2022-08-05T08:46:16.161Z,95891.88
2022-08-05T08:50:13.210Z,95877.44
2022-08-05T08:52:16.095Z,95886.19
2022-08-05T08:55:04.274Z,95881.19
2022-08-05T08:58:01.411Z,95872.78
2022-08-05T09:00:51.500Z,95875.19
2022-08-05T09:03:39.439Z,95887.13
2022-08-05T09:06:32.954Z,95891.56
2022-08-05T09:09:23.900Z,95890.59
2022-08-05T09:12:19.953Z,95892.63
2022-08-05T09:15:08.642Z,95890.72
2022-08-05T09:17:56.080Z,95899.06
2022-08-05T09:20:45.880Z,95898.47
2022-08-05T09:23:43.308Z,95895.59
2022-08-05T09:26:32.426Z,95898.13
2022-08-05T09:29:20.183Z,95892.41
2022-08-05T09:32:42.299Z,95898.50
2022-08-05T09:35:26.520Z,95884.16
2022-08-05T09:38:18.709Z,95900.63
2022-08-05T09:41:16.067Z,95893.63
2022-08-05T09:44:03.801Z,95884.75
2022-08-05T09:47:10.463Z,95897.25
2022-08-05T09:50:02.118Z,95896.59
2022-08-05T09:52:57.835Z,95893.56
2022-08-05T09:55:56.545Z,95891.78
2022-08-05T09:59:00.157Z,95891.41
2022-08-05T10:01:48.121Z,95875.13
2022-08-05T10:04:45.287Z,95865.81
2022-08-05T10:08:35.973Z,95880.81
2022-08-05T10:10:58.131Z,95875.47
2022-08-05T10:13:49.115Z,95871.25
2022-08-05T10:16:41.561Z,95869.69
2022-08-05T10:20:03.148Z,95849.81
2022-08-05T10:22:38.046Z,95859.09
2022-08-05T10:25:30.329Z,95851.78
2022-08-05T10:28:19.375Z,95851.94
2022-08-05T10:32:48.096Z,95854.31
2022-08-05T10:34:25.826Z,95857.56
2022-08-05T10:37:18.446Z,95846.84
2022-08-05T10:40:18.045Z,95839.47
2022-08-05T10:43:12.559Z,95850.13
2022-08-05T10:46:08.200Z,95835.50
2022-08-05T10:49:00.605Z,95832.22
2022-08-05T10:52:00.446Z,95845.75
2022-08-05T10:55:04.570Z,95837.69
2022-08-05T10:58:11.669Z,95835.53
2022-08-05T11:01:06.658Z,95820.25
2022-08-05T11:04:12.217Z,95836.94
2022-08-05T11:07:04.882Z,95830.53
2022-08-05T11:10:09.605Z,95814.09
2022-08-05T11:12:58.409Z,95825.97
2022-08-05T11:16:00.521Z,95825.00
2022-08-05T11:18:49.076Z,95830.88
2022-08-05T11:21:48.818Z,95824.06
2022-08-05T11:24:36.033Z,95816.97
2022-08-05T11:27:50.969Z,95824.22
2022-08-05T11:30:58.809Z,95810.09
2022-08-05T11:33:48.950Z,95814.69
2022-08-05T11:36:44.393Z,95822.06
2022-08-05T11:40:00.570Z,95819.13
2022-08-05T11:42:50.287Z,95823.34
2022-08-05T11:46:27.263Z,95825.25
2022-08-05T11:48:56.487Z,95827.53
2022-08-05T11:51:50.190Z,95827.22
2022-08-05T11:54:38.318Z,95812.56
2022-08-05T11:58:08.390Z,95818.97
2022-08-05T12:00:41.322Z,95805.59
2022-08-05T12:03:41.871Z,95806.72
2022-08-05T12:06:29.588Z,95802.03
2022-08-05T12:09:21.145Z,95805.16
2022-08-05T12:12:30.211Z,95810.19
2022-08-05T12:15:35.755Z,95800.59
2022-08-05T12:18:33.629Z,95788.41
2022-08-05T12:21:30.180Z,95795.25
2022-08-05T12:24:19.208Z,95790.59
2022-08-05T12:27:09.949Z,95788.28
2022-08-05T12:30:15.630Z,95785.97
2022-08-05T12:33:07.127Z,95788.75
2022-08-05T12:36:10.379Z,95770.09
2022-08-05T12:38:58.587Z,95771.47
2022-08-05T12:41:46.265Z,95766.09
2022-08-05T12:44:34.357Z,95757.84
2022-08-05T12:47:31.110Z,95769.44
2022-08-05T12:50:19.741Z,95756.56
2022-08-05T12:53:07.210Z,95764.06
2022-08-05T12:55:54.546Z,95756.72
2022-08-05T12:58:53.678Z,95749.38
2022-08-05T13:02:00.940Z,95747.03
2022-08-05T13:04:55.244Z,95741.56
2022-08-05T13:08:00.115Z,95739.81
2022-08-05T13:10:50.614Z,95730.69
2022-08-05T13:14:04.785Z,95726.88
2022-08-05T13:16:48.971Z,95733.25
2022-08-05T13:19:51.680Z,95729.03
2022-08-05T13:22:43.589Z,95711.34
2022-08-05T13:25:52.664Z,95720.91
2022-08-05T13:28:44.020Z,95707.59
2022-08-05T13:32:03.079Z,95698.53
2022-08-05T13:34:38.362Z,95711.13
2022-08-05T13:37:34.768Z,95708.03
2022-08-05T13:40:36.863Z,95709.44
2022-08-05T13:43:45.341Z,95702.31
2022-08-05T13:46:50.584Z,95692.91
2022-08-05T13:49:45.089Z,95691.44
2022-08-05T13:52:35.248Z,95694.69
2022-08-05T13:55:41.825Z,95692.03
2022-08-05T13:58:31.035Z,95686.47
2022-08-05T14:01:18.283Z,95676.53
2022-08-05T14:04:26.705Z,95695.56
2022-08-05T14:07:56.223Z,95673.00
2022-08-05T14:10:28.066Z,95689.72
2022-08-05T14:13:16.403Z,95686.16
2022-08-05T14:16:09.254Z,95695.31
2022-08-05T14:18:58.102Z,95691.66
2022-08-05T14:22:09.064Z,95695.44
2022-08-05T14:24:58.273Z,95697.25
2022-08-05T14:27:47.550Z,95689.47
2022-08-05T14:30:34.569Z,95694.75
2022-08-05T14:33:23.587Z,95692.88
2022-08-05T14:36:11.265Z,95669.84
2022-08-05T14:38:58.454Z,95668.56
2022-08-05T14:42:15.974Z,95676.41
2022-08-05T14:44:56.906Z,95674.47
2022-08-05T14:48:02.972Z,95666.84
2022-08-05T14:50:51.055Z,95664.53
2022-08-05T14:53:44.498Z,95664.50
2022-08-05T14:56:31.737Z,95660.84
2022-08-05T14:59:21.219Z,95662.25
2022-08-05T15:02:14.960Z,95658.72
2022-08-05T15:05:13.250Z,95652.06
2022-08-05T15:08:08.962Z,95651.00
2022-08-05T15:11:04.337Z,95645.75
2022-08-05T15:13:53.206Z,95638.72
2022-08-05T15:16:40.225Z,95643.75
2022-08-05T15:19:27.441Z,95640.53
2022-08-05T15:22:16.049Z,95644.97
2022-08-05T15:25:11.673Z,95642.78
2022-08-05T15:28:01.417Z,95643.97
2022-08-05T15:30:53.165Z,95657.06
2022-08-05T15:34:04.495Z,95656.41
2022-08-05T15:36:47.663Z,95666.72
2022-08-05T15:40:59.324Z,95662.53
2022-08-05T15:42:54.029Z,95666.50
2022-08-05T15:45:45.751Z,95676.91
2022-08-05T15:48:32.961Z,95692.28
2022-08-05T15:52:04.355Z,95674.22
2022-08-05T15:54:35.044Z,95682.09
2022-08-05T15:57:24.954Z,95681.44
2022-08-05T16:00:26.212Z,95684.88
2022-08-05T16:03:24.895Z,95703.22
2022-08-05T16:06:12.032Z,95697.06
2022-08-05T16:08:59.080Z,95702.84
2022-08-05T16:11:50.887Z,95695.38
2022-08-05T16:14:39.952Z,95689.81
2022-08-05T16:17:27.015Z,95685.75
2022-08-05T16:20:16.166Z,95688.06
2022-08-05T16:23:08.561Z,95675.44
2022-08-05T16:26:07.521Z,95683.28
2022-08-05T16:28:55.307Z,95671.22
2022-08-05T16:31:57.442Z,95676.22
2022-08-05T16:34:44.713Z,95681.31
2022-08-05T16:38:02.248Z,95673.63
2022-08-05T16:40:41.632Z,95688.97
2022-08-05T16:43:31.768Z,95690.56
2022-08-05T16:46:24.185Z,95687.03
2022-08-05T16:49:12.776Z,95693.69
2022-08-05T16:52:01.277Z,95690.41
2022-08-05T16:54:49.876Z,95698.53
2022-08-05T16:57:53.726Z,95700.72
2022-08-05T17:00:43.916Z,95681.88
2022-08-05T17:03:35.229Z,95679.03
2022-08-05T17:06:24.689Z,95670.59
2022-08-05T17:09:12.124Z,95665.41
2022-08-05T17:12:01.247Z,95648.22
2022-08-05T17:14:50.041Z,95658.06
2022-08-05T17:17:42.262Z,95673.03
2022-08-05T17:20:30.129Z,95689.88
2022-08-05T17:24:03.581Z,95694.59
2022-08-05T17:26:24.461Z,95705.22
2022-08-05T17:29:12.690Z,95712.78
2022-08-05T17:32:00.389Z,95714.13
2022-08-05T17:34:49.160Z,95714.97
2022-08-05T17:37:40.286Z,95716.06
2022-08-05T17:40:29.439Z,95723.09
2022-08-05T17:43:18.555Z,95727.47
2022-08-05T17:46:25.656Z,95736.97
2022-08-05T17:49:12.867Z,95740.84
2022-08-05T17:52:00.078Z,95735.03
2022-08-05T17:54:47.727Z,95739.00
2022-08-05T17:57:34.886Z,95731.31
2022-08-05T18:00:29.448Z,95732.34
2022-08-05T18:03:56.149Z,95743.69
2022-08-05T18:06:31.021Z,95744.31
2022-08-05T18:09:18.322Z,95743.09
2022-08-05T18:12:05.463Z,95748.78
2022-08-05T18:14:52.536Z,95749.53
2022-08-05T18:17:58.994Z,95740.97
2022-08-05T18:20:46.901Z,95746.22
2022-08-05T18:23:45.560Z,95752.41
2022-08-05T18:26:33.974Z,95747.72
2022-08-05T18:29:40.331Z,95751.91
2022-08-05T18:32:29.531Z,95759.16
2022-08-05T18:35:17.223Z,95769.13
2022-08-05T18:38:04.969Z,95779.16
2022-08-05T18:41:55.014Z,95791.56
2022-08-05T18:44:06.549Z,95794.06
2022-08-05T18:46:55.101Z,95794.50
2022-08-05T18:50:01.900Z,95801.31
2022-08-05T18:52:51.485Z,95807.03
2022-08-05T18:55:38.974Z,95812.38
2022-08-05T18:58:29.047Z,95815.69
2022-08-05T19:01:18.033Z,95828.22
2022-08-05T19:04:05.663Z,95836.94
2022-08-05T19:06:59.364Z,95830.31
2022-08-05T19:09:47.084Z,95840.53
2022-08-05T19:12:36.578Z,95847.84
2022-08-05T19:15:58.350Z,95863.06
2022-08-05T19:18:32.123Z,95872.31
2022-08-05T19:21:19.165Z,95885.09
2022-08-05T19:24:12.613Z,95878.94
2022-08-05T19:27:00.229Z,95880.81
2022-08-05T19:29:52.022Z,95876.63
2022-08-05T19:32:39.013Z,95895.59
2022-08-05T19:35:26.028Z,95915.13
2022-08-05T19:38:33.239Z,95929.59
2022-08-05T19:41:58.385Z,95914.75
2022-08-05T19:44:30.378Z,95926.88
2022-08-05T19:47:17.901Z,95928.22
2022-08-05T19:50:06.072Z,95929.34
2022-08-05T19:52:54.908Z,95934.66
2022-08-05T19:56:13.642Z,95942.13
2022-08-05T19:58:53.947Z,95951.94
2022-08-05T20:01:41.393Z,95965.22
2022-08-05T20:04:30.586Z,95968.50
2022-08-05T20:07:48.701Z,95975.91
2022-08-05T20:10:25.146Z,95972.78
2022-08-05T20:13:12.372Z,95978.84
2022-08-05T20:16:04.223Z,95990.94
2022-08-05T20:18:55.539Z,95993.66
2022-08-05T20:21:43.389Z,95993.53
2022-08-05T20:24:32.997Z,96007.34
2022-08-05T20:27:26.880Z,96017.63
2022-08-05T20:30:14.453Z,96039.88
2022-08-05T20:33:05.411Z,96056.22
2022-08-05T20:35:55.908Z,96076.16
2022-08-05T20:38:54.573Z,96097.59
2022-08-05T20:41:47.871Z,96102.59
2022-08-05T20:44:37.923Z,96110.44
2022-08-05T20:47:31.681Z,96116.75
2022-08-05T20:50:19.537Z,96125.88
2022-08-05T20:53:06.693Z,96128.56
2022-08-05T20:56:08.508Z,96136.47
2022-08-05T20:58:56.344Z,96144.09
2022-08-05T21:01:47.499Z,96143.28
2022-08-05T21:04:37.527Z,96131.66
2022-08-05T21:07:24.802Z,96126.97
2022-08-05T21:10:32.656Z,96116.94
2022-08-05T21:13:20.410Z,96101.69
2022-08-05T21:16:29.556Z,96092.56
2022-08-05T21:19:17.692Z,96086.75
2022-08-05T21:22:07.187Z,96114.72
2022-08-05T21:24:56.600Z,96139.53
2022-08-05T21:27:47.664Z,96167.81
2022-08-05T21:30:40.124Z,96165.88
2022-08-05T21:33:37.091Z,96175.31
2022-08-05T21:36:29.841Z,96190.09
2022-08-05T21:39:26.550Z,96201.53
2022-08-05T21:42:31.154Z,96200.22
2022-08-05T21:45:24.768Z,96192.81
2022-08-05T21:48:13.667Z,96193.16
2022-08-05T21:51:01.253Z,96205.78
2022-08-05T21:53:56.733Z,96201.28
2022-08-05T21:56:51.492Z,96207.00
2022-08-05T22:00:01.914Z,96217.88
2022-08-05T22:02:49.109Z,96211.91
2022-08-05T22:05:48.331Z,96209.13
2022-08-05T22:08:36.275Z,96215.09
2022-08-05T22:11:35.192Z,96224.69
2022-08-05T22:14:35.857Z,96234.88
2022-08-05T22:17:25.060Z,96240.41
2022-08-05T22:20:16.380Z,96248.84
2022-08-05T22:23:22.598Z,96250.59
2022-08-05T22:26:28.444Z,96259.06
2022-08-05T22:29:17.411Z,96268.22
2022-08-05T22:32:06.373Z,96272.75
2022-08-05T22:34:57.077Z,96284.84
2022-08-05T22:37:59.025Z,96294.66
2022-08-05T22:40:49.483Z,96296.09
2022-08-05T22:43:38.139Z,96308.19
2022-08-05T22:46:25.714Z,96324.34
2022-08-05T22:49:46.165Z,96339.28
2022-08-05T22:52:22.842Z,96342.53
2022-08-05T22:55:21.485Z,96351.00
2022-08-05T22:58:11.749Z,96373.91
2022-08-05T23:01:01.808Z,96378.25
2022-08-05T23:03:58.504Z,96406.06
2022-08-05T23:06:47.898Z,96361.09
2022-08-05T23:09:57.728Z,96305.56
2022-08-05T23:12:43.830Z,96281.97
2022-08-05T23:15:35.412Z,96313.81
2022-08-05T23:18:23.345Z,96316.34
2022-08-05T23:21:10.429Z,96335.19
2022-08-05T23:23:57.449Z,96338.09
2022-08-05T23:26:45.199Z,96354.34
2022-08-05T23:29:34.841Z,96368.84
2022-08-05T23:32:23.776Z,96349.66
2022-08-05T23:35:11.003Z,96339.78
2022-08-05T23:37:58.021Z,96351.38
2022-08-05T23:40:49.399Z,96374.38
2022-08-05T23:44:05.320Z,96406.16
2022-08-05T23:46:44.324Z,96396.03
2022-08-05T23:49:35.693Z,96400.50
2022-08-05T23:52:26.693Z,96394.56
2022-08-05T23:55:14.865Z,96391.09
2022-08-05T23:58:01.813Z,96387.81
